sensor_id;sensor_type;location;lat;lon;timestamp;pressure;altitude;pressure_sealevel;temperature;humidity
16355;BME280;8287;51.644;8.494;2023-03-21T00:01:34;100504.34;;;11.66;76.40
16355;BME280;8287;51.644;8.494;2023-03-21T00:04:01;100500.44;;;11.63;75.67
16355;BME280;8287;51.644;8.494;2023-03-21T00:06:28;100497.66;;;11.68;75.87
16355;BME280;8287;51.644;8.494;2023-03-21T00:08:55;100486.13;;;11.73;75.54
16355;BME280;8287;51.644;8.494;2023-03-21T00:11:22;100488.31;;;11.79;75.07
16355;BME280;8287;51.644;8.494;2023-03-21T00:13:48;100494.53;;;11.66;75.36
16355;BME280;8287;51.644;8.494;2023-03-21T00:16:17;100484.34;;;11.60;75.69
16355;BME280;8287;51.644;8.494;2023-03-21T00:18:46;100492.06;;;11.78;75.32
16355;BME280;8287;51.644;8.494;2023-03-21T00:21:18;100482.25;;;11.79;74.77
16355;BME280;8287;51.644;8.494;2023-03-21T00:23:45;100486.00;;;11.78;75.08
16355;BME280;8287;51.644;8.494;2023-03-21T00:26:13;100485.50;;;11.76;75.61
16355;BME280;8287;51.644;8.494;2023-03-21T00:28:42;100485.81;;;11.74;75.67
16355;BME280;8287;51.644;8.494;2023-03-21T00:31:09;100481.31;;;11.83;75.31
16355;BME280;8287;51.644;8.494;2023-03-21T00:33:36;100487.84;;;11.77;75.67
16355;BME280;8287;51.644;8.494;2023-03-21T00:36:06;100485.81;;;11.74;75.77
16355;BME280;8287;51.644;8.494;2023-03-21T00:38:33;100483.63;;;11.76;75.45
16355;BME280;8287;51.644;8.494;2023-03-21T00:41:03;100481.00;;;11.85;75.48
16355;BME280;8287;51.644;8.494;2023-03-21T00:43:30;100481.63;;;11.82;74.84
16355;BME280;8287;51.644;8.494;2023-03-21T00:45:57;100474.88;;;11.76;75.30
16355;BME280;8287;51.644;8.494;2023-03-21T00:48:24;100482.25;;;11.79;75.12
16355;BME280;8287;51.644;8.494;2023-03-21T00:50:52;100468.34;;;11.82;75.67
16355;BME280;8287;51.644;8.494;2023-03-21T00:53:21;100460.84;;;11.75;75.69
16355;BME280;8287;51.644;8.494;2023-03-21T00:55:48;100463.53;;;11.92;75.06
16355;BME280;8287;51.644;8.494;2023-03-21T00:58:15;100461.66;;;11.93;75.05
16355;BME280;8287;51.644;8.494;2023-03-21T01:00:42;100458.41;;;11.96;74.62
16355;BME280;8287;51.644;8.494;2023-03-21T01:03:15;100461.22;;;11.99;74.63
16355;BME280;8287;51.644;8.494;2023-03-21T01:05:44;100449.31;;;11.88;75.25
16355;BME280;8287;51.644;8.494;2023-03-21T01:08:32;100452.44;;;11.90;75.56
16355;BME280;8287;51.644;8.494;2023-03-21T01:11:04;100447.28;;;11.94;74.75
16355;BME280;8287;51.644;8.494;2023-03-21T01:13:32;100453.22;;;11.91;74.95
16355;BME280;8287;51.644;8.494;2023-03-21T01:15:59;100440.41;;;11.93;75.22
16355;BME280;8287;51.644;8.494;2023-03-21T01:18:27;100441.19;;;11.93;75.51
16355;BME280;8287;51.644;8.494;2023-03-21T01:20:56;100450.84;;;11.81;75.03
16355;BME280;8287;51.644;8.494;2023-03-21T01:23:23;100448.19;;;11.81;75.64
16355;BME280;8287;51.644;8.494;2023-03-21T01:25:53;100440.25;;;11.89;75.32
16355;BME280;8287;51.644;8.494;2023-03-21T01:28:20;100439.00;;;11.95;75.24
16355;BME280;8287;51.644;8.494;2023-03-21T01:30:47;100431.97;;;11.91;75.65
16355;BME280;8287;51.644;8.494;2023-03-21T01:33:15;100426.66;;;11.91;75.80
16355;BME280;8287;51.644;8.494;2023-03-21T01:35:42;100436.66;;;11.94;75.76
16355;BME280;8287;51.644;8.494;2023-03-21T01:38:08;100428.25;;;12.00;75.24
16355;BME280;8287;51.644;8.494;2023-03-21T01:40:36;100424.97;;;12.03;74.98
16355;BME280;8287;51.644;8.494;2023-03-21T01:43:18;100427.63;;;11.95;75.00
16355;BME280;8287;51.644;8.494;2023-03-21T01:46:11;100431.69;;;12.01;75.38
16355;BME280;8287;51.644;8.494;2023-03-21T01:48:46;100430.91;;;12.00;75.10
16355;BME280;8287;51.644;8.494;2023-03-21T01:51:14;100422.16;;;12.00;75.08
16355;BME280;8287;51.644;8.494;2023-03-21T01:53:40;100428.34;;;11.78;75.57
16355;BME280;8287;51.644;8.494;2023-03-21T01:56:10;100421.66;;;11.81;76.26
16355;BME280;8287;51.644;8.494;2023-03-21T01:58:40;100417.59;;;11.92;75.53
16355;BME280;8287;51.644;8.494;2023-03-21T02:01:07;100412.13;;;11.88;75.32
16355;BME280;8287;51.644;8.494;2023-03-21T02:03:34;100414.81;;;11.97;74.80
16355;BME280;8287;51.644;8.494;2023-03-21T02:06:16;100406.38;;;11.95;74.83
16355;BME280;8287;51.644;8.494;2023-03-21T02:08:45;100412.00;;;12.02;74.87
16355;BME280;8287;51.644;8.494;2023-03-21T02:11:13;100412.28;;;11.92;74.84
16355;BME280;8287;51.644;8.494;2023-03-21T02:13:42;100402.31;;;11.97;74.88
16355;BME280;8287;51.644;8.494;2023-03-21T02:16:13;100401.69;;;12.00;74.49
16355;BME280;8287;51.644;8.494;2023-03-21T02:18:48;100392.47;;;12.06;74.45
16355;BME280;8287;51.644;8.494;2023-03-21T02:21:36;100394.34;;;12.06;74.18
16355;BME280;8287;51.644;8.494;2023-03-21T02:24:28;100383.09;;;11.92;74.71
16355;BME280;8287;51.644;8.494;2023-03-21T02:27:12;100388.59;;;12.04;73.97
16355;BME280;8287;51.644;8.494;2023-03-21T02:29:57;100386.84;;;12.08;74.16
16355;BME280;8287;51.644;8.494;2023-03-21T02:32:39;100385.16;;;12.12;73.78
16355;BME280;8287;51.644;8.494;2023-03-21T02:35:23;100379.97;;;12.15;73.53
16355;BME280;8287;51.644;8.494;2023-03-21T02:37:57;100380.91;;;12.11;73.53
16355;BME280;8287;51.644;8.494;2023-03-21T02:40:29;100373.88;;;11.98;73.74
16355;BME280;8287;51.644;8.494;2023-03-21T02:43:03;100377.31;;;12.07;73.98
16355;BME280;8287;51.644;8.494;2023-03-21T02:45:36;100379.34;;;12.10;74.11
16355;BME280;8287;51.644;8.494;2023-03-21T02:48:07;100372.94;;;12.11;74.05
16355;BME280;8287;51.644;8.494;2023-03-21T02:50:39;100372.16;;;12.02;74.68
16355;BME280;8287;51.644;8.494;2023-03-21T02:53:12;100370.94;;;11.99;74.26
16355;BME280;8287;51.644;8.494;2023-03-21T02:55:41;100365.28;;;12.01;74.53
16355;BME280;8287;51.644;8.494;2023-03-21T02:58:11;100369.03;;;12.00;74.61
16355;BME280;8287;51.644;8.494;2023-03-21T03:00:41;100362.94;;;12.08;74.73
16355;BME280;8287;51.644;8.494;2023-03-21T03:03:09;100368.28;;;11.99;74.49
16355;BME280;8287;51.644;8.494;2023-03-21T03:05:40;100365.13;;;11.97;75.02
16355;BME280;8287;51.644;8.494;2023-03-21T03:08:24;100356.41;;;11.97;75.08
16355;BME280;8287;51.644;8.494;2023-03-21T03:11:02;100354.06;;;12.04;74.21
16355;BME280;8287;51.644;8.494;2023-03-21T03:13:41;100350.78;;;12.07;74.02
16355;BME280;8287;51.644;8.494;2023-03-21T03:16:20;100359.66;;;12.11;74.07
16355;BME280;8287;51.644;8.494;2023-03-21T03:18:52;100349.53;;;12.13;73.96
16355;BME280;8287;51.644;8.494;2023-03-21T03:21:26;100344.81;;;12.10;74.03
16355;BME280;8287;51.644;8.494;2023-03-21T03:23:57;100342.78;;;11.98;74.90
16355;BME280;8287;51.644;8.494;2023-03-21T03:26:29;100348.75;;;12.04;74.25
16355;BME280;8287;51.644;8.494;2023-03-21T03:29:01;100346.25;;;12.07;74.84
16355;BME280;8287;51.644;8.494;2023-03-21T03:31:32;100345.75;;;12.05;75.01
16355;BME280;8287;51.644;8.494;2023-03-21T03:34:06;100349.84;;;12.20;73.77
16355;BME280;8287;51.644;8.494;2023-03-21T03:36:36;100342.94;;;12.19;73.93
16355;BME280;8287;51.644;8.494;2023-03-21T03:39:08;100340.78;;;12.21;74.47
16355;BME280;8287;51.644;8.494;2023-03-21T03:41:41;100341.53;;;12.21;74.55
16355;BME280;8287;51.644;8.494;2023-03-21T03:44:09;100348.91;;;12.24;74.33
16355;BME280;8287;51.644;8.494;2023-03-21T03:46:41;100343.56;;;12.16;74.67
16355;BME280;8287;51.644;8.494;2023-03-21T03:49:13;100340.28;;;12.19;74.17
16355;BME280;8287;51.644;8.494;2023-03-21T03:51:45;100333.41;;;12.26;73.78
16355;BME280;8287;51.644;8.494;2023-03-21T03:54:19;100334.19;;;12.27;73.93
16355;BME280;8287;51.644;8.494;2023-03-21T03:56:46;100337.63;;;12.27;74.15
16355;BME280;8287;51.644;8.494;2023-03-21T03:59:14;100335.47;;;12.21;74.44
16355;BME280;8287;51.644;8.494;2023-03-21T04:01:43;100330.44;;;12.19;74.15
16355;BME280;8287;51.644;8.494;2023-03-21T04:04:10;100337.34;;;12.12;74.81
16355;BME280;8287;51.644;8.494;2023-03-21T04:06:37;100337.94;;;12.09;74.51
16355;BME280;8287;51.644;8.494;2023-03-21T04:09:04;100338.72;;;12.18;74.65
16355;BME280;8287;51.644;8.494;2023-03-21T04:11:33;100341.72;;;12.16;74.47
16355;BME280;8287;51.644;8.494;2023-03-21T04:13:59;100336.06;;;12.18;74.46
16355;BME280;8287;51.644;8.494;2023-03-21T04:16:26;100324.97;;;12.16;74.40
16355;BME280;8287;51.644;8.494;2023-03-21T04:18:55;100330.28;;;12.16;74.61
16355;BME280;8287;51.644;8.494;2023-03-21T04:21:22;100332.31;;;12.19;74.11
16355;BME280;8287;51.644;8.494;2023-03-21T04:23:48;100329.69;;;12.10;74.37
16355;BME280;8287;51.644;8.494;2023-03-21T04:26:15;100329.84;;;12.14;74.56
16355;BME280;8287;51.644;8.494;2023-03-21T04:28:43;100325.28;;;12.23;74.09
16355;BME280;8287;51.644;8.494;2023-03-21T04:31:09;100330.00;;;12.17;74.28
16355;BME280;8287;51.644;8.494;2023-03-21T04:33:37;100328.59;;;12.20;74.53
16355;BME280;8287;51.644;8.494;2023-03-21T04:36:05;100322.78;;;12.26;73.68
16355;BME280;8287;51.644;8.494;2023-03-21T04:38:34;100319.78;;;12.28;74.12
16355;BME280;8287;51.644;8.494;2023-03-21T04:41:01;100316.06;;;12.20;74.29
16355;BME280;8287;51.644;8.494;2023-03-21T04:43:28;100319.22;;;12.14;74.74
16355;BME280;8287;51.644;8.494;2023-03-21T04:45:56;100311.81;;;12.28;73.93
16355;BME280;8287;51.644;8.494;2023-03-21T04:48:23;100314.38;;;12.24;73.64
16355;BME280;8287;51.644;8.494;2023-03-21T04:50:49;100312.00;;;12.23;74.31
16355;BME280;8287;51.644;8.494;2023-03-21T04:53:16;100310.44;;;12.22;73.93
16355;BME280;8287;51.644;8.494;2023-03-21T04:55:43;100306.69;;;12.23;74.59
16355;BME280;8287;51.644;8.494;2023-03-21T04:58:09;100309.81;;;12.25;74.46
16355;BME280;8287;51.644;8.494;2023-03-21T05:00:36;100321.38;;;12.29;74.54
16355;BME280;8287;51.644;8.494;2023-03-21T05:03:04;100308.09;;;12.29;74.03
16355;BME280;8287;51.644;8.494;2023-03-21T05:05:33;100304.19;;;12.26;74.08
16355;BME280;8287;51.644;8.494;2023-03-21T05:08:00;100310.59;;;12.25;74.27
16355;BME280;8287;51.644;8.494;2023-03-21T05:10:26;100311.56;;;12.21;74.62
16355;BME280;8287;51.644;8.494;2023-03-21T05:12:53;100310.00;;;12.20;74.74
16355;BME280;8287;51.644;8.494;2023-03-21T05:15:20;100306.69;;;12.23;74.86
16355;BME280;8287;51.644;8.494;2023-03-21T05:17:46;100309.81;;;12.25;74.37
16355;BME280;8287;51.644;8.494;2023-03-21T05:20:15;100311.81;;;12.28;74.50
16355;BME280;8287;51.644;8.494;2023-03-21T05:22:42;100309.16;;;12.28;74.51
16355;BME280;8287;51.644;8.494;2023-03-21T05:25:11;100304.19;;;12.26;74.28
16355;BME280;8287;51.644;8.494;2023-03-21T05:27:38;100302.00;;;12.28;74.13
16355;BME280;8287;51.644;8.494;2023-03-21T05:30:11;100306.06;;;12.26;74.28
16355;BME280;8287;51.644;8.494;2023-03-21T05:32:38;100303.84;;;12.28;74.08
16355;BME280;8287;51.644;8.494;2023-03-21T05:35:05;100302.94;;;12.24;74.52
16355;BME280;8287;51.644;8.494;2023-03-21T05:37:34;100313.72;;;12.27;74.39
16355;BME280;8287;51.644;8.494;2023-03-21T05:40:00;100313.41;;;12.29;74.26
16355;BME280;8287;51.644;8.494;2023-03-21T05:42:28;100306.06;;;12.26;74.42
16355;BME280;8287;51.644;8.494;2023-03-21T05:44:55;100306.84;;;12.26;74.73
16355;BME280;8287;51.644;8.494;2023-03-21T05:47:22;100296.84;;;12.32;73.95
16355;BME280;8287;51.644;8.494;2023-03-21T05:49:48;100299.34;;;12.28;73.94
16355;BME280;8287;51.644;8.494;2023-03-21T05:52:15;100294.97;;;12.32;74.69
16355;BME280;8287;51.644;8.494;2023-03-21T05:54:43;100302.31;;;12.27;74.09
16355;BME280;8287;51.644;8.494;2023-03-21T05:57:10;100298.41;;;12.24;74.62
16355;BME280;8287;51.644;8.494;2023-03-21T05:59:36;100294.97;;;12.15;75.02
16355;BME280;8287;51.644;8.494;2023-03-21T06:02:03;100302.63;;;12.17;74.63
16355;BME280;8287;51.644;8.494;2023-03-21T06:04:29;100293.09;;;12.16;74.60
16355;BME280;8287;51.644;8.494;2023-03-21T06:06:56;100298.88;;;12.26;74.18
16355;BME280;8287;51.644;8.494;2023-03-21T06:09:23;100299.97;;;12.25;74.32
16355;BME280;8287;51.644;8.494;2023-03-21T06:11:52;100304.34;;;12.30;73.49
16355;BME280;8287;51.644;8.494;2023-03-21T06:14:21;100302.31;;;12.35;73.67
16355;BME280;8287;51.644;8.494;2023-03-21T06:16:48;100303.06;;;12.36;73.55
16355;BME280;8287;51.644;8.494;2023-03-21T06:19:15;100311.22;;;12.31;73.35
16355;BME280;8287;51.644;8.494;2023-03-21T06:21:42;100309.47;;;12.35;72.99
16355;BME280;8287;51.644;8.494;2023-03-21T06:24:09;100304.66;;;12.37;72.56
16355;BME280;8287;51.644;8.494;2023-03-21T06:26:35;100304.16;;;12.35;72.89
16355;BME280;8287;51.644;8.494;2023-03-21T06:29:03;100309.16;;;12.36;72.90
16355;BME280;8287;51.644;8.494;2023-03-21T06:31:30;100315.09;;;12.42;72.62
16355;BME280;8287;51.644;8.494;2023-03-21T06:33:56;100313.53;;;12.41;72.76
16355;BME280;8287;51.644;8.494;2023-03-21T06:36:23;100310.72;;;12.37;73.31
16355;BME280;8287;51.644;8.494;2023-03-21T06:38:49;100305.25;;;12.42;73.79
16355;BME280;8287;51.644;8.494;2023-03-21T06:41:16;100305.41;;;12.46;73.39
16355;BME280;8287;51.644;8.494;2023-03-21T06:43:43;100307.56;;;12.52;73.60
16355;BME280;8287;51.644;8.494;2023-03-21T06:46:11;100309.63;;;12.47;73.23
16355;BME280;8287;51.644;8.494;2023-03-21T06:48:38;100301.66;;;12.47;73.53
16355;BME280;8287;51.644;8.494;2023-03-21T06:51:09;100313.50;;;12.58;73.59
16355;BME280;8287;51.644;8.494;2023-03-21T06:53:37;100310.03;;;12.66;73.78
16355;BME280;8287;51.644;8.494;2023-03-21T06:56:04;100302.66;;;12.71;73.48
16355;BME280;8287;51.644;8.494;2023-03-21T06:58:30;100306.72;;;12.77;73.26
16355;BME280;8287;51.644;8.494;2023-03-21T07:00:57;100311.53;;;12.84;72.90
16355;BME280;8287;51.644;8.494;2023-03-21T07:03:25;100304.50;;;12.88;72.83
16355;BME280;8287;51.644;8.494;2023-03-21T07:05:52;100309.97;;;12.91;73.10
16355;BME280;8287;51.644;8.494;2023-03-21T07:08:18;100297.88;;;12.94;72.76
16355;BME280;8287;51.644;8.494;2023-03-21T07:10:45;100300.53;;;12.94;73.01
16355;BME280;8287;51.644;8.494;2023-03-21T07:13:12;100290.22;;;13.01;73.04
16355;BME280;8287;51.644;8.494;2023-03-21T07:15:39;100303.34;;;13.06;72.85
16355;BME280;8287;51.644;8.494;2023-03-21T07:18:06;100305.72;;;12.99;73.11
16355;BME280;8287;51.644;8.494;2023-03-21T07:20:35;100301.28;;;13.11;72.69
16355;BME280;8287;51.644;8.494;2023-03-21T07:23:03;100303.25;;;13.23;72.67
16355;BME280;8287;51.644;8.494;2023-03-21T07:25:30;100310.28;;;13.27;71.97
16355;BME280;8287;51.644;8.494;2023-03-21T07:27:57;100305.81;;;13.39;71.61
16355;BME280;8287;51.644;8.494;2023-03-21T07:30:24;100307.81;;;13.42;70.68
16355;BME280;8287;51.644;8.494;2023-03-21T07:32:51;100310.44;;;13.51;70.61
16355;BME280;8287;51.644;8.494;2023-03-21T07:35:19;100311.47;;;13.58;71.01
16355;BME280;8287;51.644;8.494;2023-03-21T07:37:47;100310.50;;;13.63;70.33
16355;BME280;8287;51.644;8.494;2023-03-21T07:40:14;100316.81;;;13.58;70.16
16355;BME280;8287;51.644;8.494;2023-03-21T07:42:41;100309.53;;;13.67;69.18
16355;BME280;8287;51.644;8.494;2023-03-21T07:45:09;100314.22;;;13.70;68.38
16355;BME280;8287;51.644;8.494;2023-03-21T07:47:38;100306.47;;;13.77;68.80
16355;BME280;8287;51.644;8.494;2023-03-21T07:50:05;100302.91;;;13.73;68.64
16355;BME280;8287;51.644;8.494;2023-03-21T07:52:31;100313.03;;;13.80;69.41
16355;BME280;8287;51.644;8.494;2023-03-21T07:54:59;100304.41;;;13.62;69.64
16355;BME280;8287;51.644;8.494;2023-03-21T07:57:26;100312.63;;;13.69;70.11
16355;BME280;8287;51.644;8.494;2023-03-21T07:59:52;100316.16;;;13.82;70.34
16355;BME280;8287;51.644;8.494;2023-03-21T08:02:19;100308.69;;;13.75;70.54
16355;BME280;8287;51.644;8.494;2023-03-21T08:04:46;100316.94;;;13.82;70.11
16355;BME280;8287;51.644;8.494;2023-03-21T08:07:12;100324.63;;;13.84;70.59
16355;BME280;8287;51.644;8.494;2023-03-21T08:09:39;100320.72;;;13.81;70.70
16355;BME280;8287;51.644;8.494;2023-03-21T08:12:09;100319.16;;;13.80;70.35
16355;BME280;8287;51.644;8.494;2023-03-21T08:14:36;100311.66;;;13.94;70.15
16355;BME280;8287;51.644;8.494;2023-03-21T08:17:03;100313.16;;;14.04;70.54
16355;BME280;8287;51.644;8.494;2023-03-21T08:19:30;100319.91;;;14.01;68.72
16355;BME280;8287;51.644;8.494;2023-03-21T08:21:56;100317.38;;;14.05;68.70
16355;BME280;8287;51.644;8.494;2023-03-21T08:24:24;100316.72;;;14.08;69.00
16355;BME280;8287;51.644;8.494;2023-03-21T08:26:51;100321.84;;;14.13;69.28
16355;BME280;8287;51.644;8.494;2023-03-21T08:29:19;100322.03;;;14.08;69.50
16355;BME280;8287;51.644;8.494;2023-03-21T08:31:47;100323.03;;;14.03;70.36
16355;BME280;8287;51.644;8.494;2023-03-21T08:34:13;100324.09;;;13.90;70.25
16355;BME280;8287;51.644;8.494;2023-03-21T08:36:42;100321.75;;;13.89;70.33
16355;BME280;8287;51.644;8.494;2023-03-21T08:39:09;100327.31;;;13.96;70.34
16355;BME280;8287;51.644;8.494;2023-03-21T08:41:36;100320.56;;;13.98;71.51
16355;BME280;8287;51.644;8.494;2023-03-21T08:44:04;100328.25;;;13.79;72.67
16355;BME280;8287;51.644;8.494;2023-03-21T08:46:32;100322.09;;;13.87;72.22
16355;BME280;8287;51.644;8.494;2023-03-21T08:48:59;100321.88;;;13.92;73.21
16355;BME280;8287;51.644;8.494;2023-03-21T08:51:25;100321.09;;;13.92;74.11
16355;BME280;8287;51.644;8.494;2023-03-21T08:53:52;100323.78;;;13.92;74.01
16355;BME280;8287;51.644;8.494;2023-03-21T08:56:18;100328.75;;;13.93;74.44
16355;BME280;8287;51.644;8.494;2023-03-21T08:58:45;100321.16;;;14.04;73.76
16355;BME280;8287;51.644;8.494;2023-03-21T09:01:13;100326.66;;;13.99;74.10
16355;BME280;8287;51.644;8.494;2023-03-21T09:03:42;100327.91;;;14.01;73.76
16355;BME280;8287;51.644;8.494;2023-03-21T09:06:09;100334.59;;;14.07;74.52
16355;BME280;8287;51.644;8.494;2023-03-21T09:08:36;100324.84;;;13.91;75.42
16355;BME280;8287;51.644;8.494;2023-03-21T09:11:03;100338.13;;;13.99;73.18
16355;BME280;8287;51.644;8.494;2023-03-21T09:13:30;100338.44;;;13.98;74.23
16355;BME280;8287;51.644;8.494;2023-03-21T09:15:56;100329.09;;;13.92;76.13
16355;BME280;8287;51.644;8.494;2023-03-21T09:18:25;100325.97;;;13.90;77.37
16355;BME280;8287;51.644;8.494;2023-03-21T09:21:08;100333.50;;;13.67;78.30
16355;BME280;8287;51.644;8.494;2023-03-21T09:23:37;100327.78;;;13.77;78.44
16355;BME280;8287;51.644;8.494;2023-03-21T09:26:04;100328.88;;;13.76;78.64
16355;BME280;8287;51.644;8.494;2023-03-21T09:28:30;100326.31;;;13.68;79.07
16355;BME280;8287;51.644;8.494;2023-03-21T09:30:57;100340.34;;;13.48;80.51
16355;BME280;8287;51.644;8.494;2023-03-21T09:33:24;100342.00;;;13.61;80.15
16355;BME280;8287;51.644;8.494;2023-03-21T09:35:53;100331.59;;;13.47;81.23
16355;BME280;8287;51.644;8.494;2023-03-21T09:38:21;100337.69;;;13.48;82.26
16355;BME280;8287;51.644;8.494;2023-03-21T09:41:01;100328.56;;;13.57;80.68
16355;BME280;8287;51.644;8.494;2023-03-21T09:43:39;100327.00;;;13.56;81.07
16355;BME280;8287;51.644;8.494;2023-03-21T09:46:11;100327.44;;;13.58;82.12
16355;BME280;8287;51.644;8.494;2023-03-21T09:48:48;100323.09;;;13.54;82.19
16355;BME280;8287;51.644;8.494;2023-03-21T09:51:17;100334.34;;;13.59;81.40
16355;BME280;8287;51.644;8.494;2023-03-21T09:53:49;100330.06;;;13.67;81.36
16355;BME280;8287;51.644;8.494;2023-03-21T09:56:16;100328.16;;;13.67;81.21
16355;BME280;8287;51.644;8.494;2023-03-21T09:58:45;100324.47;;;13.60;82.08
16355;BME280;8287;51.644;8.494;2023-03-21T10:01:19;100320.13;;;13.55;80.52
16355;BME280;8287;51.644;8.494;2023-03-21T10:03:51;100321.94;;;13.63;80.64
16355;BME280;8287;51.644;8.494;2023-03-21T10:06:21;100322.25;;;13.62;80.95
16355;BME280;8287;51.644;8.494;2023-03-21T10:08:57;100317.13;;;13.57;80.94
16355;BME280;8287;51.644;8.494;2023-03-21T10:11:27;100319.78;;;13.57;80.56
16355;BME280;8287;51.644;8.494;2023-03-21T10:13:59;100307.56;;;13.56;81.43
16355;BME280;8287;51.644;8.494;2023-03-21T10:16:29;100312.84;;;13.44;81.29
16355;BME280;8287;51.644;8.494;2023-03-21T10:18:58;100311.88;;;13.48;81.04
16355;BME280;8287;51.644;8.494;2023-03-21T10:21:28;100307.25;;;13.57;80.91
16355;BME280;8287;51.644;8.494;2023-03-21T10:23:58;100307.00;;;13.71;80.81
16355;BME280;8287;51.644;8.494;2023-03-21T10:26:27;100306.16;;;13.79;80.64
16355;BME280;8287;51.644;8.494;2023-03-21T10:28:57;100305.72;;;13.77;80.74
16355;BME280;8287;51.644;8.494;2023-03-21T10:31:25;100295.63;;;13.82;79.76
16355;BME280;8287;51.644;8.494;2023-03-21T10:33:59;100301.09;;;13.86;79.79
16355;BME280;8287;51.644;8.494;2023-03-21T10:36:29;100297.78;;;13.89;80.36
16355;BME280;8287;51.644;8.494;2023-03-21T10:39:01;100291.59;;;13.97;79.62
16355;BME280;8287;51.644;8.494;2023-03-21T10:41:29;100289.00;;;13.88;79.80
16355;BME280;8287;51.644;8.494;2023-03-21T10:44:07;100288.34;;;13.91;79.20
16355;BME280;8287;51.644;8.494;2023-03-21T10:46:35;100293.09;;;14.06;79.93
16355;BME280;8287;51.644;8.494;2023-03-21T10:49:01;100290.81;;;14.17;79.93
16355;BME280;8287;51.644;8.494;2023-03-21T10:51:31;100289.06;;;14.21;79.07
16355;BME280;8287;51.644;8.494;2023-03-21T10:54:04;100293.59;;;14.20;79.05
16355;BME280;8287;51.644;8.494;2023-03-21T10:56:35;100290.28;;;14.23;78.17
16355;BME280;8287;51.644;8.494;2023-03-21T10:59:04;100289.63;;;14.26;79.02
16355;BME280;8287;51.644;8.494;2023-03-21T11:01:35;100286.38;;;14.21;77.43
16355;BME280;8287;51.644;8.494;2023-03-21T11:04:06;100276.59;;;13.92;78.73
16355;BME280;8287;51.644;8.494;2023-03-21T11:06:37;100286.66;;;14.07;77.74
16355;BME280;8287;51.644;8.494;2023-03-21T11:09:08;100283.66;;;14.09;77.89
16355;BME280;8287;51.644;8.494;2023-03-21T11:11:39;100286.06;;;14.02;78.85
16355;BME280;8287;51.644;8.494;2023-03-21T11:14:07;100285.53;;;14.08;78.89
16355;BME280;8287;51.644;8.494;2023-03-21T11:16:49;100279.00;;;13.85;79.11
16355;BME280;8287;51.644;8.494;2023-03-21T11:19:19;100273.25;;;13.95;79.16
16355;BME280;8287;51.644;8.494;2023-03-21T11:21:52;100278.59;;;13.95;79.90
16355;BME280;8287;51.644;8.494;2023-03-21T11:24:20;100276.41;;;13.97;79.57
16355;BME280;8287;51.644;8.494;2023-03-21T11:26:48;100265.75;;;13.97;79.96
16355;BME280;8287;51.644;8.494;2023-03-21T11:29:33;100271.22;;;13.80;80.67
16355;BME280;8287;51.644;8.494;2023-03-21T11:32:08;100271.56;;;13.91;80.57
16355;BME280;8287;51.644;8.494;2023-03-21T11:34:41;100275.47;;;13.93;80.40
16355;BME280;8287;51.644;8.494;2023-03-21T11:37:19;100267.03;;;13.91;80.87
16355;BME280;8287;51.644;8.494;2023-03-21T11:39:53;100267.56;;;13.85;79.67
16355;BME280;8287;51.644;8.494;2023-03-21T11:42:26;100268.59;;;13.92;80.38
16355;BME280;8287;51.644;8.494;2023-03-21T11:45:00;100267.50;;;13.93;80.99
16355;BME280;8287;51.644;8.494;2023-03-21T11:47:27;100256.94;;;13.85;81.49
16355;BME280;8287;51.644;8.494;2023-03-21T11:49:55;100251.19;;;13.95;80.62
16355;BME280;8287;51.644;8.494;2023-03-21T11:52:27;100247.41;;;13.96;81.42
16355;BME280;8287;51.644;8.494;2023-03-21T11:55:31;100242.44;;;13.74;82.40
16355;BME280;8287;51.644;8.494;2023-03-21T11:58:12;100242.75;;;13.93;82.11
16355;BME280;8287;51.644;8.494;2023-03-21T12:00:47;100234.94;;;13.88;81.82
16355;BME280;8287;51.644;8.494;2023-03-21T12:03:38;100236.19;;;13.90;81.70
16355;BME280;8287;51.644;8.494;2023-03-21T12:06:16;100225.28;;;13.83;82.19
16355;BME280;8287;51.644;8.494;2023-03-21T12:08:53;100231.31;;;13.92;82.43
16355;BME280;8287;51.644;8.494;2023-03-21T12:11:30;100228.03;;;13.75;83.01
16355;BME280;8287;51.644;8.494;2023-03-21T12:14:04;100220.09;;;13.87;82.96
16355;BME280;8287;51.644;8.494;2023-03-21T12:16:45;100210.44;;;13.94;82.25
16355;BME280;8287;51.644;8.494;2023-03-21T12:22:15;100195.81;;;14.00;83.23
16355;BME280;8287;51.644;8.494;2023-03-21T12:24:50;100196.34;;;13.94;82.32
16355;BME280;8287;51.644;8.494;2023-03-21T12:27:28;100197.09;;;13.82;82.38
16355;BME280;8287;51.644;8.494;2023-03-21T12:30:09;100199.09;;;13.85;82.30
16355;BME280;8287;51.644;8.494;2023-03-21T12:32:51;100189.59;;;13.96;82.60
16355;BME280;8287;51.644;8.494;2023-03-21T12:35:33;100186.13;;;13.84;82.50
16355;BME280;8287;51.644;8.494;2023-03-21T12:38:11;100179.59;;;13.93;83.21
16355;BME280;8287;51.644;8.494;2023-03-21T12:40:59;100167.59;;;13.87;83.49
16355;BME280;8287;51.644;8.494;2023-03-21T12:43:45;100170.59;;;13.86;82.25
16355;BME280;8287;51.644;8.494;2023-03-21T12:46:18;100165.81;;;13.91;83.04
16355;BME280;8287;51.644;8.494;2023-03-21T12:48:50;100172.75;;;14.04;82.51
16355;BME280;8287;51.644;8.494;2023-03-21T12:51:23;100165.63;;;14.08;82.52
16355;BME280;8287;51.644;8.494;2023-03-21T12:53:56;100162.56;;;14.18;81.92
16355;BME280;8287;51.644;8.494;2023-03-21T12:56:30;100155.38;;;14.19;81.69
16355;BME280;8287;51.644;8.494;2023-03-21T12:59:03;100159.16;;;14.18;81.97
16355;BME280;8287;51.644;8.494;2023-03-21T13:01:33;100147.03;;;14.20;81.99
16355;BME280;8287;51.644;8.494;2023-03-21T13:04:27;100148.25;;;14.23;83.14
16355;BME280;8287;51.644;8.494;2023-03-21T13:06:58;100145.47;;;14.43;83.13
16355;BME280;8287;51.644;8.494;2023-03-21T13:09:32;100149.59;;;14.29;82.98
16355;BME280;8287;51.644;8.494;2023-03-21T13:12:05;100144.72;;;14.43;81.87
16355;BME280;8287;51.644;8.494;2023-03-21T13:14:37;100146.94;;;14.53;80.28
16355;BME280;8287;51.644;8.494;2023-03-21T13:17:10;100147.25;;;14.51;79.92
16355;BME280;8287;51.644;8.494;2023-03-21T13:19:42;100151.25;;;14.57;79.32